^^
Weather Station Historical Data
 
Daily Summary for February 28, 2024 Units:  English    Metric   Both
Daily Weekly Monthly Yearly
  Current: High: Low: Average:
Temperature: 28 °F 32.9 °F 19.1 °F 27.8 °F
Dew Point: 6.7 °F 17.2 °F 0.5 °F 6.9 °F
Humidity: 39.9% 54% 29.2% 41%
Wind Speed: 4.3mph 8.8mph 0.5mph 4.2mph
Wind Gust: 11.4mph 18.3mph - -
WindNNE - - East
Pressure: 30.20 in 30.20 in 30.05 in -
Precipitation: 0.00 in      
 
 
Tabular Data for February 28, 2024
Time Temperature Dew Point Pressure Wind Wind Speed Wind Gust Humidity Rainfall Rate (Hourly) solar
00:04 32.9 °F 17.2 °F 30.05 in NE 4.2 mph 10.3 mph 52.1% 0.00 in 0 W/m2
00:09 32.5 °F 16.8 °F 30.06 in NNE 4.2 mph 10.3 mph 51.7% 0.00 in 0 W/m2
00:14 32.6 °F 16.2 °F 30.06 in NNE 4.1 mph 9.2 mph 50.3% 0.00 in 0 W/m2
00:19 32.5 °F 16 °F 30.06 in NNE 4 mph 9.2 mph 50% 0.00 in 0 W/m2
00:24 32.6 °F 15.3 °F 30.06 in NE 4.4 mph 10.3 mph 48.4% 0.00 in 0 W/m2
00:29 32.7 °F 15.3 °F 30.06 in NNE 4.8 mph 11.4 mph 48% 0.00 in 0 W/m2
00:34 32.5 °F 15.2 °F 30.06 in NNE 4.3 mph 9.2 mph 48.2% 0.00 in 0 W/m2
00:39 32.2 °F 14.8 °F 30.06 in NE 4.3 mph 10.3 mph 48.1% 0.00 in 0 W/m2
00:44 32.2 °F 14.7 °F 30.06 in NE 3.8 mph 8.1 mph 48% 0.00 in 0 W/m2
00:49 31.9 °F 14.6 °F 30.06 in NNE 3.4 mph 8.1 mph 48.4% 0.00 in 0 W/m2
00:54 31.5 °F 14.5 °F 30.06 in NE 2.3 mph 6.9 mph 48.9% 0.00 in 0 W/m2
00:59 31.1 °F 14.2 °F 30.06 in North 2.9 mph 8.1 mph 49.2% 0.00 in 0 W/m2
01:04 31.6 °F 13.7 °F 30.07 in NE 4.5 mph 10.3 mph 47.1% 0.00 in 0 W/m2
01:09 32.1 °F 13.8 °F 30.07 in NE 5.9 mph 10.3 mph 46.4% 0.00 in 0 W/m2
01:14 32.3 °F 13.5 °F 30.07 in NE 4.8 mph 10.3 mph 45.4% 0.00 in 0 W/m2
01:19 31.9 °F 13.7 °F 30.07 in NNE 3.8 mph 8.1 mph 46.7% 0.00 in 0 W/m2
01:24 31.3 °F 13.7 °F 30.08 in North 3.4 mph 8.1 mph 47.7% 0.00 in 0 W/m2
01:29 31 °F 13.5 °F 30.08 in NNE 2.9 mph 6.9 mph 48% 0.00 in 0 W/m2
01:34 30.8 °F 13.5 °F 30.07 in NNE 2.7 mph 6.9 mph 48.3% 0.00 in 0 W/m2
01:39 30.1 °F 13.5 °F 30.07 in North 3.4 mph 9.2 mph 49.6% 0.00 in 0 W/m2
01:44 30.4 °F 12.9 °F 30.07 in NE 6 mph 10.3 mph 47.8% 0.00 in 0 W/m2
01:49 31.2 °F 12.7 °F 30.07 in NNE 5.7 mph 14.8 mph 45.8% 0.00 in 0 W/m2
01:54 31.8 °F 12.6 °F 30.07 in NNE 6.6 mph 14.8 mph 44.4% 0.00 in 0 W/m2
01:59 31.7 °F 12.4 °F 30.07 in NNE 6.3 mph 12.5 mph 44.2% 0.00 in 0 W/m2
02:04 31.3 °F 12.6 °F 30.07 in NNE 5 mph 10.3 mph 45.4% 0.00 in 0 W/m2
02:09 30.6 °F 12.4 °F 30.07 in North 4.9 mph 10.3 mph 46.4% 0.00 in 0 W/m2
02:14 30.1 °F 12.3 °F 30.08 in NNE 4.8 mph 9.2 mph 46.9% 0.00 in 0 W/m2
02:19 29.8 °F 12.1 °F 30.08 in North 4.9 mph 10.3 mph 47.2% 0.00 in 0 W/m2
02:24 29.9 °F 11.6 °F 30.08 in NNE 6.1 mph 11.4 mph 46% 0.00 in 0 W/m2
02:29 30.3 °F 11.1 °F 30.08 in NNE 6.4 mph 13.6 mph 44% 0.00 in 0 W/m2
02:34 30.7 °F 10.4 °F 30.08 in NNE 5.8 mph 12.5 mph 42.2% 0.00 in 0 W/m2
02:39 30.7 °F 9.4 °F 30.09 in North 6.7 mph 14.8 mph 40.2% 0.00 in 0 W/m2
02:44 30.8 °F 8 °F 30.08 in NE 8 mph 17.2 mph 37.7% 0.00 in 0 W/m2
02:49 30.9 °F 5.8 °F 30.08 in NNE 8.6 mph 17.2 mph 33.9% 0.00 in 0 W/m2
02:54 30.7 °F 4.8 °F 30.09 in NNE 7.7 mph 17.2 mph 32.8% 0.00 in 0 W/m2
02:59 30.5 °F 4.1 °F 30.09 in NNE 7.5 mph 18.3 mph 31.9% 0.00 in 0 W/m2
03:04 30.5 °F 3.4 °F 30.09 in NE 8.1 mph 18.3 mph 30.9% 0.00 in 0 W/m2
03:09 30.4 °F 2.7 °F 30.09 in NNE 8.4 mph 15.9 mph 30% 0.00 in 0 W/m2
03:14 30.3 °F 2.5 °F 30.09 in North 7.9 mph 17.2 mph 29.9% 0.00 in 0 W/m2
03:19 30.1 °F 2.2 °F 30.09 in NNE 8.2 mph 15.9 mph 29.7% 0.00 in 0 W/m2
03:24 29.8 °F 2.1 °F 30.09 in NE 6.7 mph 15.9 mph 30% 0.00 in 0 W/m2
03:29 29.7 °F 2 °F 30.10 in NNE 6.3 mph 12.5 mph 30.2% 0.00 in 0 W/m2
03:34 29.8 °F 2.1 °F 30.09 in North 7.3 mph 17.2 mph 30.1% 0.00 in 0 W/m2
03:39 29.9 °F 2 °F 30.09 in North 7.7 mph 13.6 mph 29.7% 0.00 in 0 W/m2
03:44 29.9 °F 2.1 °F 30.09 in NNE 6.6 mph 12.5 mph 29.8% 0.00 in 0 W/m2
03:49 29.7 °F 2.3 °F 30.10 in North 5.9 mph 14.8 mph 30.5% 0.00 in 0 W/m2
03:54 29.2 °F 2.7 °F 30.10 in North 7 mph 13.6 mph 31.7% 0.00 in 0 W/m2
03:59 29.2 °F 2.2 °F 30.09 in North 8.8 mph 15.9 mph 30.9% 0.00 in 0 W/m2
04:04 29.4 °F 1.9 °F 30.09 in North 7.3 mph 14.8 mph 30.3% 0.00 in 0 W/m2
04:09 29.4 °F 1.7 °F 30.10 in North 6.6 mph 11.4 mph 30% 0.00 in 0 W/m2
04:14 29.2 °F 1.2 °F 30.11 in NNW 5.7 mph 12.5 mph 29.4% 0.00 in 0 W/m2
04:19 28.9 °F 0.8 °F 30.11 in North 5 mph 12.5 mph 29.2% 0.00 in 0 W/m2
04:24 28.5 °F 0.8 °F 30.11 in North 3.8 mph 11.4 mph 29.7% 0.00 in 0 W/m2
04:29 28.1 °F 0.9 °F 30.11 in North 3.7 mph 9.2 mph 30.4% 0.00 in 0 W/m2
04:34 27.9 °F 0.5 °F 30.11 in North 4.5 mph 9.2 mph 30.1% 0.00 in 0 W/m2
04:39 27.9 °F 0.5 °F 30.11 in North 4.8 mph 10.3 mph 30.3% 0.00 in 0 W/m2
04:44 27.9 °F 0.7 °F 30.11 in North 4.7 mph 10.3 mph 30.6% 0.00 in 0 W/m2
04:49 27.7 °F 1 °F 30.11 in NNE 5 mph 12.5 mph 31.1% 0.00 in 0 W/m2
04:54 27.3 °F 1 °F 30.11 in North 4.5 mph 9.2 mph 31.5% 0.00 in 0 W/m2
04:59 27.4 °F 1 °F 30.11 in NNW 4.4 mph 9.2 mph 31.5% 0.00 in 0 W/m2
05:04 27 °F 1.5 °F 30.12 in NNW 1.9 mph 5.8 mph 32.7% 0.00 in 0 W/m2
05:09 26.5 °F 1.6 °F 30.12 in NNW 2.2 mph 5.8 mph 33.5% 0.00 in 0 W/m2
05:14 26.6 °F 2.1 °F 30.12 in NW 2.2 mph 5.8 mph 34.2% 0.00 in 0 W/m2
05:19 26.5 °F 2.6 °F 30.12 in NW 1.4 mph 4.5 mph 35% 0.00 in 0 W/m2
05:24 25.7 °F 2.6 °F 30.13 in NW 0.5 mph 2.2 mph 36.4% 0.00 in 0 W/m2
05:29 25 °F 2.5 °F 30.13 in NW 0.6 mph 2.2 mph 37.4% 0.00 in 0 W/m2
05:34 24.6 °F 2.6 °F 30.13 in NNW 1.2 mph 3.4 mph 37.8% 0.00 in 0 W/m2
05:39 24.5 °F 2.6 °F 30.13 in NNW 1.2 mph 3.4 mph 38% 0.00 in 0 W/m2
05:44 24.2 °F 2.7 °F 30.14 in NNW 1.3 mph 2.2 mph 38.8% 0.00 in 0 W/m2
05:49 23.7 °F 3 °F 30.14 in NNW 1.1 mph 2.2 mph 40.3% 0.00 in 0 W/m2
05:54 23.5 °F 3.4 °F 30.14 in North 1.6 mph 3.4 mph 41.4% 0.00 in 0 W/m2
05:59 23.3 °F 3.8 °F 30.14 in North 1.2 mph 2.2 mph 42.6% 0.00 in 0 W/m2
06:04 22.9 °F 4 °F 30.14 in NNW 1.1 mph 2.2 mph 43.6% 0.00 in 0 W/m2
06:09 22.6 °F 4.1 °F 30.14 in North 0.6 mph 2.2 mph 44.3% 0.00 in 0 W/m2
06:14 22.3 °F 4.1 °F 30.15 in North 1.1 mph 2.2 mph 45.1% 0.00 in 0.1 W/m2
06:19 21.8 °F 4.4 °F 30.15 in North 1.2 mph 3.4 mph 46.6% 0.00 in 0.2 W/m2
06:24 21.7 °F 4.5 °F 30.15 in NNE 1.2 mph 3.4 mph 47% 0.00 in 0.5 W/m2
06:29 21.5 °F 4.5 °F 30.15 in NNE 1.7 mph 3.4 mph 47.4% 0.00 in 1.2 W/m2
06:34 21.4 °F 4.7 °F 30.15 in NNE 1.9 mph 4.5 mph 48.1% 0.00 in 2.6 W/m2
06:39 21.1 °F 5 °F 30.16 in North 1.7 mph 4.5 mph 49.1% 0.00 in 4.8 W/m2
06:44 20.4 °F 5.1 °F 30.16 in North 0.9 mph 2.2 mph 50.9% 0.00 in 7.9 W/m2
06:49 19.4 °F 5.1 °F 30.16 in North 1.3 mph 4.5 mph 53.2% 0.00 in 11.5 W/m2
06:54 19.1 °F 5.1 °F 30.16 in NNE 2.6 mph 4.5 mph 54% 0.00 in 14.8 W/m2
06:59 19.8 °F 5.4 °F 30.17 in NNE 3 mph 5.8 mph 53% 0.00 in 19.8 W/m2
07:04 20.7 °F 5.8 °F 30.17 in NE 3.5 mph 5.8 mph 52% 0.00 in 24.6 W/m2
07:09 21.7 °F 6.2 °F 30.17 in NNE 3.8 mph 8.1 mph 50.6% 0.00 in 25.1 W/m2
07:14 22.2 °F 6.3 °F 30.17 in NNE 3.8 mph 8.1 mph 49.9% 0.00 in 24.7 W/m2
07:19 22.7 °F 6.2 °F 30.17 in NNE 3.4 mph 8.1 mph 48.7% 0.00 in 26.6 W/m2
07:24 23.6 °F 6.2 °F 30.18 in North 2.8 mph 8.1 mph 46.8% 0.00 in 28.4 W/m2
07:29 24.2 °F 6.2 °F 30.18 in North 2.7 mph 6.9 mph 45.7% 0.00 in 29.9 W/m2
07:34 24.6 °F 6.3 °F 30.18 in NNE 2.5 mph 4.5 mph 45.1% 0.00 in 31.1 W/m2
07:39 25.3 °F 6.4 °F 30.18 in North 2.9 mph 6.9 mph 44.1% 0.00 in 32.5 W/m2
07:44 25.7 °F 6.7 °F 30.18 in North 2.6 mph 6.9 mph 43.7% 0.00 in 99.5 W/m2
07:49 25.9 °F 6.4 °F 30.19 in North 3.6 mph 6.9 mph 43% 0.00 in 119.2 W/m2
07:54 26.2 °F 6.8 °F 30.19 in NNE 3.1 mph 6.9 mph 43% 0.00 in 133.1 W/m2
07:59 26.5 °F 7 °F 30.20 in North 3.9 mph 8.1 mph 42.8% 0.00 in 148.9 W/m2
08:04 27 °F 6.9 °F 30.19 in NNE 4.2 mph 9.2 mph 41.9% 0.00 in 165.1 W/m2
08:09 27.3 °F 6.8 °F 30.20 in NNE 4.5 mph 9.2 mph 41.5% 0.00 in 182.2 W/m2
08:14 28 °F 7.2 °F 30.19 in NNE 4.1 mph 9.2 mph 40.8% 0.00 in 198.7 W/m2
08:19 28 °F 6.7 °F 30.20 in NNE 4.3 mph 11.4 mph 39.9% 0.00 in 214.1 W/m2
Santa Fe, NM, USA
Compliments of Weather Underground - 4 mb